sensor_id;sensor_type;location;lat;lon;timestamp;temperature;humidity
16479;DHT22;8350;52.316;10.530;2023-05-31T00:00:28;12.90;1.00
16479;DHT22;8350;52.316;10.530;2023-05-31T00:02:55;12.70;1.00
16479;DHT22;8350;52.316;10.530;2023-05-31T00:05:36;12.80;1.00
16479;DHT22;8350;52.316;10.530;2023-05-31T00:08:03;12.60;1.00
16479;DHT22;8350;52.316;10.530;2023-05-31T00:10:30;12.50;1.00
16479;DHT22;8350;52.316;10.530;2023-05-31T00:12:56;12.50;1.00
16479;DHT22;8350;52.316;10.530;2023-05-31T00:15:23;12.40;1.00
16479;DHT22;8350;52.316;10.530;2023-05-31T00:17:52;12.30;1.00
16479;DHT22;8350;52.316;10.530;2023-05-31T00:20:20;12.20;1.00
16479;DHT22;8350;52.316;10.530;2023-05-31T00:22:49;12.20;1.00
16479;DHT22;8350;52.316;10.530;2023-05-31T00:25:16;12.20;1.00
16479;DHT22;8350;52.316;10.530;2023-05-31T00:27:43;12.30;1.00
16479;DHT22;8350;52.316;10.530;2023-05-31T00:30:11;12.40;1.00
16479;DHT22;8350;52.316;10.530;2023-05-31T00:32:41;12.50;1.00
16479;DHT22;8350;52.316;10.530;2023-05-31T00:35:10;12.50;1.00
16479;DHT22;8350;52.316;10.530;2023-05-31T00:37:37;12.50;1.00
16479;DHT22;8350;52.316;10.530;2023-05-31T00:40:05;12.40;1.00
16479;DHT22;8350;52.316;10.530;2023-05-31T00:42:32;12.30;1.00
16479;DHT22;8350;52.316;10.530;2023-05-31T00:44:59;12.10;1.00
16479;DHT22;8350;52.316;10.530;2023-05-31T00:47:27;12.00;1.00
16479;DHT22;8350;52.316;10.530;2023-05-31T00:49:58;12.10;1.00
16479;DHT22;8350;52.316;10.530;2023-05-31T00:52:27;12.10;1.00
16479;DHT22;8350;52.316;10.530;2023-05-31T00:54:57;12.10;1.00
16479;DHT22;8350;52.316;10.530;2023-05-31T00:57:24;11.90;1.00
16479;DHT22;8350;52.316;10.530;2023-05-31T00:59:52;11.90;1.00
16479;DHT22;8350;52.316;10.530;2023-05-31T01:02:19;11.80;1.00
16479;DHT22;8350;52.316;10.530;2023-05-31T01:04:48;11.90;1.00
16479;DHT22;8350;52.316;10.530;2023-05-31T01:07:17;11.90;1.00
16479;DHT22;8350;52.316;10.530;2023-05-31T01:09:46;11.90;1.00
16479;DHT22;8350;52.316;10.530;2023-05-31T01:12:20;11.80;1.00
16479;DHT22;8350;52.316;10.530;2023-05-31T01:14:59;11.70;1.00
16479;DHT22;8350;52.316;10.530;2023-05-31T01:17:32;11.60;1.00
16479;DHT22;8350;52.316;10.530;2023-05-31T01:20:06;11.50;1.00
16479;DHT22;8350;52.316;10.530;2023-05-31T01:22:46;11.50;1.00
16479;DHT22;8350;52.316;10.530;2023-05-31T01:25:35;11.50;1.00
16479;DHT22;8350;52.316;10.530;2023-05-31T01:28:09;11.50;1.00
16479;DHT22;8350;52.316;10.530;2023-05-31T01:30:37;11.50;1.00
16479;DHT22;8350;52.316;10.530;2023-05-31T01:33:07;11.50;1.00
16479;DHT22;8350;52.316;10.530;2023-05-31T01:35:35;11.60;1.00
16479;DHT22;8350;52.316;10.530;2023-05-31T01:38:03;11.50;1.00
16479;DHT22;8350;52.316;10.530;2023-05-31T01:40:31;11.40;1.00
16479;DHT22;8350;52.316;10.530;2023-05-31T01:42:59;11.40;1.00
16479;DHT22;8350;52.316;10.530;2023-05-31T01:45:27;11.40;1.00
16479;DHT22;8350;52.316;10.530;2023-05-31T01:48:02;11.30;1.00
16479;DHT22;8350;52.316;10.530;2023-05-31T01:50:30;11.30;1.00
16479;DHT22;8350;52.316;10.530;2023-05-31T01:52:58;11.20;1.00
16479;DHT22;8350;52.316;10.530;2023-05-31T01:55:25;11.20;1.00
16479;DHT22;8350;52.316;10.530;2023-05-31T01:57:52;11.00;1.00
16479;DHT22;8350;52.316;10.530;2023-05-31T02:00:23;11.00;1.00
16479;DHT22;8350;52.316;10.530;2023-05-31T02:02:53;10.90;1.00
16479;DHT22;8350;52.316;10.530;2023-05-31T02:05:21;10.80;1.00
16479;DHT22;8350;52.316;10.530;2023-05-31T02:07:47;10.70;1.00
16479;DHT22;8350;52.316;10.530;2023-05-31T02:10:15;10.60;1.00
16479;DHT22;8350;52.316;10.530;2023-05-31T02:12:42;10.50;5.80
16479;DHT22;8350;52.316;10.530;2023-05-31T02:15:10;10.50;7.20
16479;DHT22;8350;52.316;10.530;2023-05-31T02:17:38;10.60;15.60
16479;DHT22;8350;52.316;10.530;2023-05-31T02:20:09;10.50;6.20
16479;DHT22;8350;52.316;10.530;2023-05-31T02:22:38;10.40;1.00
16479;DHT22;8350;52.316;10.530;2023-05-31T02:25:07;10.30;1.00
16479;DHT22;8350;52.316;10.530;2023-05-31T02:27:37;10.10;1.00
16479;DHT22;8350;52.316;10.530;2023-05-31T02:30:06;10.10;1.00
16479;DHT22;8350;52.316;10.530;2023-05-31T02:32:33;10.00;1.00
16479;DHT22;8350;52.316;10.530;2023-05-31T02:35:03;9.90;1.00
16479;DHT22;8350;52.316;10.530;2023-05-31T02:37:33;9.80;1.00
16479;DHT22;8350;52.316;10.530;2023-05-31T02:40:00;9.80;35.40
16479;DHT22;8350;52.316;10.530;2023-05-31T02:42:32;9.70;42.50
16479;DHT22;8350;52.316;10.530;2023-05-31T02:44:59;9.70;73.40
16479;DHT22;8350;52.316;10.530;2023-05-31T02:47:26;9.60;98.00
16479;DHT22;8350;52.316;10.530;2023-05-31T02:49:53;9.60;90.30
16479;DHT22;8350;52.316;10.530;2023-05-31T02:52:20;9.40;90.10
16479;DHT22;8350;52.316;10.530;2023-05-31T02:54:51;9.20;41.30
16479;DHT22;8350;52.316;10.530;2023-05-31T02:57:18;9.00;47.40
16479;DHT22;8350;52.316;10.530;2023-05-31T02:59:48;8.80;80.50
16479;DHT22;8350;52.316;10.530;2023-05-31T03:02:15;8.60;99.90
16479;DHT22;8350;52.316;10.530;2023-05-31T03:04:42;8.50;99.90
16479;DHT22;8350;52.316;10.530;2023-05-31T03:07:11;8.50;99.90
16479;DHT22;8350;52.316;10.530;2023-05-31T03:09:37;8.50;99.90
16479;DHT22;8350;52.316;10.530;2023-05-31T03:12:06;8.60;99.90
16479;DHT22;8350;52.316;10.530;2023-05-31T03:14:33;8.70;77.10
16479;DHT22;8350;52.316;10.530;2023-05-31T03:17:00;8.80;49.20
16479;DHT22;8350;52.316;10.530;2023-05-31T03:19:28;8.70;35.30
16479;DHT22;8350;52.316;10.530;2023-05-31T03:21:55;8.60;59.20
16479;DHT22;8350;52.316;10.530;2023-05-31T03:24:22;8.70;69.90
16479;DHT22;8350;52.316;10.530;2023-05-31T03:26:49;8.70;99.90
16479;DHT22;8350;52.316;10.530;2023-05-31T03:29:17;8.80;99.90
16479;DHT22;8350;52.316;10.530;2023-05-31T03:31:44;8.70;99.90
16479;DHT22;8350;52.316;10.530;2023-05-31T03:34:25;8.70;99.90
16479;DHT22;8350;52.316;10.530;2023-05-31T03:36:52;8.70;99.90
16479;DHT22;8350;52.316;10.530;2023-05-31T03:39:19;8.60;99.90
16479;DHT22;8350;52.316;10.530;2023-05-31T03:41:47;8.50;99.90
16479;DHT22;8350;52.316;10.530;2023-05-31T03:44:16;8.40;99.90
16479;DHT22;8350;52.316;10.530;2023-05-31T03:46:43;8.40;99.90
16479;DHT22;8350;52.316;10.530;2023-05-31T03:49:10;8.40;99.90
16479;DHT22;8350;52.316;10.530;2023-05-31T03:51:37;8.40;99.90
16479;DHT22;8350;52.316;10.530;2023-05-31T03:54:04;8.40;99.90
16479;DHT22;8350;52.316;10.530;2023-05-31T03:56:31;8.40;99.90
16479;DHT22;8350;52.316;10.530;2023-05-31T03:58:58;8.40;99.90
16479;DHT22;8350;52.316;10.530;2023-05-31T04:01:26;8.50;99.90
16479;DHT22;8350;52.316;10.530;2023-05-31T04:03:53;8.60;99.90
16479;DHT22;8350;52.316;10.530;2023-05-31T04:06:20;8.80;99.90
16479;DHT22;8350;52.316;10.530;2023-05-31T04:08:48;9.00;99.90
16479;DHT22;8350;52.316;10.530;2023-05-31T04:11:15;9.10;99.90
16479;DHT22;8350;52.316;10.530;2023-05-31T04:13:44;9.20;99.90
16479;DHT22;8350;52.316;10.530;2023-05-31T04:16:11;9.20;99.90
16479;DHT22;8350;52.316;10.530;2023-05-31T04:18:42;9.30;99.90
16479;DHT22;8350;52.316;10.530;2023-05-31T04:21:09;9.50;99.90
16479;DHT22;8350;52.316;10.530;2023-05-31T04:23:36;10.00;99.90
16479;DHT22;8350;52.316;10.530;2023-05-31T04:26:03;10.40;99.90
16479;DHT22;8350;52.316;10.530;2023-05-31T04:28:30;10.50;99.90
16479;DHT22;8350;52.316;10.530;2023-05-31T04:30:57;10.60;99.90
16479;DHT22;8350;52.316;10.530;2023-05-31T04:33:26;10.60;99.90
16479;DHT22;8350;52.316;10.530;2023-05-31T04:35:58;10.60;99.90
16479;DHT22;8350;52.316;10.530;2023-05-31T04:38:26;10.70;99.90
16479;DHT22;8350;52.316;10.530;2023-05-31T04:40:53;10.80;99.90
16479;DHT22;8350;52.316;10.530;2023-05-31T04:43:21;11.00;99.90
16479;DHT22;8350;52.316;10.530;2023-05-31T04:45:48;11.10;99.90
16479;DHT22;8350;52.316;10.530;2023-05-31T04:48:16;11.30;99.90
16479;DHT22;8350;52.316;10.530;2023-05-31T04:50:43;11.40;99.90
16479;DHT22;8350;52.316;10.530;2023-05-31T04:53:13;11.50;99.90
16479;DHT22;8350;52.316;10.530;2023-05-31T04:55:40;11.60;95.30
16479;DHT22;8350;52.316;10.530;2023-05-31T04:58:07;11.80;58.40
16479;DHT22;8350;52.316;10.530;2023-05-31T05:00:34;12.10;1.90
16479;DHT22;8350;52.316;10.530;2023-05-31T05:03:02;12.80;1.00
16479;DHT22;8350;52.316;10.530;2023-05-31T05:05:29;14.20;1.00
16479;DHT22;8350;52.316;10.530;2023-05-31T05:07:59;15.80;99.90
16479;DHT22;8350;52.316;10.530;2023-05-31T05:10:27;16.60;1.00
16479;DHT22;8350;52.316;10.530;2023-05-31T05:12:54;17.20;99.90
16479;DHT22;8350;52.316;10.530;2023-05-31T05:15:21;18.00;1.00
16479;DHT22;8350;52.316;10.530;2023-05-31T05:17:48;18.60;99.90
16479;DHT22;8350;52.316;10.530;2023-05-31T05:20:15;19.10;99.90
16479;DHT22;8350;52.316;10.530;2023-05-31T05:22:42;19.50;1.00
16479;DHT22;8350;52.316;10.530;2023-05-31T05:25:16;20.00;1.00
16479;DHT22;8350;52.316;10.530;2023-05-31T05:27:44;20.30;99.90
16479;DHT22;8350;52.316;10.530;2023-05-31T05:30:12;20.20;1.00
16479;DHT22;8350;52.316;10.530;2023-05-31T05:32:39;20.00;1.00
16479;DHT22;8350;52.316;10.530;2023-05-31T05:35:06;19.80;99.90
16479;DHT22;8350;52.316;10.530;2023-05-31T05:37:34;20.00;99.90
16479;DHT22;8350;52.316;10.530;2023-05-31T05:40:01;20.30;99.90
16479;DHT22;8350;52.316;10.530;2023-05-31T05:42:27;20.30;1.00
16479;DHT22;8350;52.316;10.530;2023-05-31T05:44:57;20.20;1.00
16479;DHT22;8350;52.316;10.530;2023-05-31T05:47:24;20.20;1.00
16479;DHT22;8350;52.316;10.530;2023-05-31T05:49:51;20.10;1.00
16479;DHT22;8350;52.316;10.530;2023-05-31T05:52:19;20.30;1.00
16479;DHT22;8350;52.316;10.530;2023-05-31T05:54:46;20.30;81.10
16479;DHT22;8350;52.316;10.530;2023-05-31T05:57:13;20.60;1.00
16479;DHT22;8350;52.316;10.530;2023-05-31T05:59:41;20.60;99.90
16479;DHT22;8350;52.316;10.530;2023-05-31T06:02:11;20.00;1.00
16479;DHT22;8350;52.316;10.530;2023-05-31T06:04:38;19.30;1.00
16479;DHT22;8350;52.316;10.530;2023-05-31T06:07:06;19.10;99.90
16479;DHT22;8350;52.316;10.530;2023-05-31T06:09:35;19.10;99.90
16479;DHT22;8350;52.316;10.530;2023-05-31T06:12:02;19.20;99.90
16479;DHT22;8350;52.316;10.530;2023-05-31T06:14:29;19.30;99.90
16479;DHT22;8350;52.316;10.530;2023-05-31T06:16:56;19.30;99.90
16479;DHT22;8350;52.316;10.530;2023-05-31T06:19:24;19.20;1.00
16479;DHT22;8350;52.316;10.530;2023-05-31T06:21:51;19.20;99.90
16479;DHT22;8350;52.316;10.530;2023-05-31T06:24:19;19.20;1.00
16479;DHT22;8350;52.316;10.530;2023-05-31T06:26:46;18.80;70.80
16479;DHT22;8350;52.316;10.530;2023-05-31T06:29:15;18.60;1.00
16479;DHT22;8350;52.316;10.530;2023-05-31T06:31:42;18.40;53.70
16479;DHT22;8350;52.316;10.530;2023-05-31T06:34:09;18.30;99.90
16479;DHT22;8350;52.316;10.530;2023-05-31T06:36:37;18.30;99.90
16479;DHT22;8350;52.316;10.530;2023-05-31T06:39:04;18.50;99.90
16479;DHT22;8350;52.316;10.530;2023-05-31T06:41:31;18.60;1.00
16479;DHT22;8350;52.316;10.530;2023-05-31T06:44:00;18.80;99.90
16479;DHT22;8350;52.316;10.530;2023-05-31T06:46:27;19.10;1.00
16479;DHT22;8350;52.316;10.530;2023-05-31T06:48:54;19.30;1.00
16479;DHT22;8350;52.316;10.530;2023-05-31T06:51:24;19.50;1.00
16479;DHT22;8350;52.316;10.530;2023-05-31T06:53:52;19.50;99.90
16479;DHT22;8350;52.316;10.530;2023-05-31T06:56:19;19.60;1.00
16479;DHT22;8350;52.316;10.530;2023-05-31T06:58:49;19.80;1.00
16479;DHT22;8350;52.316;10.530;2023-05-31T07:01:22;20.10;99.90
16479;DHT22;8350;52.316;10.530;2023-05-31T07:03:50;20.30;1.00
16479;DHT22;8350;52.316;10.530;2023-05-31T07:06:17;20.50;99.90
16479;DHT22;8350;52.316;10.530;2023-05-31T07:08:44;20.40;99.90
16479;DHT22;8350;52.316;10.530;2023-05-31T07:11:15;20.00;99.90
16479;DHT22;8350;52.316;10.530;2023-05-31T07:13:42;20.00;1.00
16479;DHT22;8350;52.316;10.530;2023-05-31T07:16:08;20.00;99.90
16479;DHT22;8350;52.316;10.530;2023-05-31T07:18:36;20.00;1.00
16479;DHT22;8350;52.316;10.530;2023-05-31T07:21:03;19.90;99.90
16479;DHT22;8350;52.316;10.530;2023-05-31T07:23:30;20.10;99.90
16479;DHT22;8350;52.316;10.530;2023-05-31T07:25:57;20.30;99.90
16479;DHT22;8350;52.316;10.530;2023-05-31T07:28:27;20.60;99.90
16479;DHT22;8350;52.316;10.530;2023-05-31T07:30:54;20.60;1.00
16479;DHT22;8350;52.316;10.530;2023-05-31T07:33:21;20.90;99.90
16479;DHT22;8350;52.316;10.530;2023-05-31T07:35:49;21.20;99.90
16479;DHT22;8350;52.316;10.530;2023-05-31T07:38:15;21.60;1.00
16479;DHT22;8350;52.316;10.530;2023-05-31T07:40:42;21.60;99.90
16479;DHT22;8350;52.316;10.530;2023-05-31T07:43:09;20.90;1.00
16479;DHT22;8350;52.316;10.530;2023-05-31T07:45:40;20.80;99.90
16479;DHT22;8350;52.316;10.530;2023-05-31T07:48:06;20.90;1.00
16479;DHT22;8350;52.316;10.530;2023-05-31T07:50:34;20.80;1.00
16479;DHT22;8350;52.316;10.530;2023-05-31T07:53:01;20.90;1.00
16479;DHT22;8350;52.316;10.530;2023-05-31T07:55:28;21.50;1.00
16479;DHT22;8350;52.316;10.530;2023-05-31T07:57:55;22.00;1.00
16479;DHT22;8350;52.316;10.530;2023-05-31T08:00:23;22.20;99.90
16479;DHT22;8350;52.316;10.530;2023-05-31T08:02:52;22.60;12.70
16479;DHT22;8350;52.316;10.530;2023-05-31T08:05:19;22.90;9.20
16479;DHT22;8350;52.316;10.530;2023-05-31T08:07:47;23.20;1.00
16479;DHT22;8350;52.316;10.530;2023-05-31T08:10:14;23.40;99.90
16479;DHT22;8350;52.316;10.530;2023-05-31T08:12:41;23.60;72.10
16479;DHT22;8350;52.316;10.530;2023-05-31T08:15:09;23.20;99.90
16479;DHT22;8350;52.316;10.530;2023-05-31T08:17:36;22.80;1.00
16479;DHT22;8350;52.316;10.530;2023-05-31T08:20:06;22.30;5.90
16479;DHT22;8350;52.316;10.530;2023-05-31T08:22:35;22.40;32.90
16479;DHT22;8350;52.316;10.530;2023-05-31T08:25:02;22.50;8.00
16479;DHT22;8350;52.316;10.530;2023-05-31T08:27:29;22.30;1.00
16479;DHT22;8350;52.316;10.530;2023-05-31T08:29:56;22.40;1.00
16479;DHT22;8350;52.316;10.530;2023-05-31T08:32:23;22.90;99.90
16479;DHT22;8350;52.316;10.530;2023-05-31T08:34:50;23.30;1.00
16479;DHT22;8350;52.316;10.530;2023-05-31T08:37:19;23.70;1.00
16479;DHT22;8350;52.316;10.530;2023-05-31T08:39:46;23.20;1.00
16479;DHT22;8350;52.316;10.530;2023-05-31T08:42:14;23.10;99.90
16479;DHT22;8350;52.316;10.530;2023-05-31T08:44:43;22.80;99.90
16479;DHT22;8350;52.316;10.530;2023-05-31T08:47:17;22.50;99.90
16479;DHT22;8350;52.316;10.530;2023-05-31T08:49:45;22.30;99.90
16479;DHT22;8350;52.316;10.530;2023-05-31T08:52:12;22.50;99.90
16479;DHT22;8350;52.316;10.530;2023-05-31T08:54:42;22.70;99.90
16479;DHT22;8350;52.316;10.530;2023-05-31T08:57:10;23.10;99.90
16479;DHT22;8350;52.316;10.530;2023-05-31T08:59:38;23.50;99.90
16479;DHT22;8350;52.316;10.530;2023-05-31T09:02:08;23.70;99.90
16479;DHT22;8350;52.316;10.530;2023-05-31T09:04:37;24.00;99.90
16479;DHT22;8350;52.316;10.530;2023-05-31T09:07:05;24.50;99.90
16479;DHT22;8350;52.316;10.530;2023-05-31T09:09:32;24.70;52.00
16479;DHT22;8350;52.316;10.530;2023-05-31T09:12:01;24.80;1.00
16479;DHT22;8350;52.316;10.530;2023-05-31T09:14:28;24.60;1.00
16479;DHT22;8350;52.316;10.530;2023-05-31T09:16:56;24.20;1.00
16479;DHT22;8350;52.316;10.530;2023-05-31T09:19:24;23.60;1.00
16479;DHT22;8350;52.316;10.530;2023-05-31T09:21:52;22.90;1.00
16479;DHT22;8350;52.316;10.530;2023-05-31T09:24:21;22.60;1.00
16479;DHT22;8350;52.316;10.530;2023-05-31T09:26:48;22.70;1.00
16479;DHT22;8350;52.316;10.530;2023-05-31T09:29:18;23.00;1.00
16479;DHT22;8350;52.316;10.530;2023-05-31T09:31:47;23.40;1.00
16479;DHT22;8350;52.316;10.530;2023-05-31T09:34:25;23.60;1.00
16479;DHT22;8350;52.316;10.530;2023-05-31T09:36:57;24.20;1.00
16479;DHT22;8350;52.316;10.530;2023-05-31T09:39:24;24.30;1.00
16479;DHT22;8350;52.316;10.530;2023-05-31T09:41:51;24.40;1.00
16479;DHT22;8350;52.316;10.530;2023-05-31T09:44:25;23.90;1.00
16479;DHT22;8350;52.316;10.530;2023-05-31T09:46:53;23.60;1.00
16479;DHT22;8350;52.316;10.530;2023-05-31T09:49:20;23.70;1.00
16479;DHT22;8350;52.316;10.530;2023-05-31T09:51:49;24.00;1.00
16479;DHT22;8350;52.316;10.530;2023-05-31T09:54:18;23.70;1.00
16479;DHT22;8350;52.316;10.530;2023-05-31T09:56:48;24.00;99.90
16479;DHT22;8350;52.316;10.530;2023-05-31T09:59:16;23.60;1.00
16479;DHT22;8350;52.316;10.530;2023-05-31T10:01:45;23.90;1.00
16479;DHT22;8350;52.316;10.530;2023-05-31T10:04:12;24.20;99.90
16479;DHT22;8350;52.316;10.530;2023-05-31T10:06:39;24.40;99.90
16479;DHT22;8350;52.316;10.530;2023-05-31T10:09:07;24.20;99.90
16479;DHT22;8350;52.316;10.530;2023-05-31T10:11:36;23.90;99.90
16479;DHT22;8350;52.316;10.530;2023-05-31T10:14:06;23.90;99.90
16479;DHT22;8350;52.316;10.530;2023-05-31T10:16:37;24.00;99.90
16479;DHT22;8350;52.316;10.530;2023-05-31T10:19:11;24.00;99.90
16479;DHT22;8350;52.316;10.530;2023-05-31T10:21:42;23.40;99.90
16479;DHT22;8350;52.316;10.530;2023-05-31T10:24:14;23.50;99.90
16479;DHT22;8350;52.316;10.530;2023-05-31T10:26:46;23.50;99.90
16479;DHT22;8350;52.316;10.530;2023-05-31T10:29:19;23.40;99.90
16479;DHT22;8350;52.316;10.530;2023-05-31T10:31:49;23.60;99.90
16479;DHT22;8350;52.316;10.530;2023-05-31T10:34:21;24.00;99.90
16479;DHT22;8350;52.316;10.530;2023-05-31T10:36:49;23.70;99.90
16479;DHT22;8350;52.316;10.530;2023-05-31T10:39:24;23.60;99.90
16479;DHT22;8350;52.316;10.530;2023-05-31T10:42:01;23.70;99.90
16479;DHT22;8350;52.316;10.530;2023-05-31T10:44:36;23.80;99.90
16479;DHT22;8350;52.316;10.530;2023-05-31T10:47:05;24.10;99.90
16479;DHT22;8350;52.316;10.530;2023-05-31T10:49:37;24.40;99.90
16479;DHT22;8350;52.316;10.530;2023-05-31T10:52:08;24.10;99.90
16479;DHT22;8350;52.316;10.530;2023-05-31T10:54:41;24.00;99.90
16479;DHT22;8350;52.316;10.530;2023-05-31T10:57:19;24.30;99.90
16479;DHT22;8350;52.316;10.530;2023-05-31T10:59:46;24.90;99.90
16479;DHT22;8350;52.316;10.530;2023-05-31T11:02:15;24.90;99.90
16479;DHT22;8350;52.316;10.530;2023-05-31T11:04:44;24.80;99.90
16479;DHT22;8350;52.316;10.530;2023-05-31T11:07:13;24.80;99.90
16479;DHT22;8350;52.316;10.530;2023-05-31T11:09:54;24.40;99.90
16479;DHT22;8350;52.316;10.530;2023-05-31T11:12:32;24.30;99.90
16479;DHT22;8350;52.316;10.530;2023-05-31T11:15:00;24.50;99.90
16479;DHT22;8350;52.316;10.530;2023-05-31T11:17:29;24.70;99.90
16479;DHT22;8350;52.316;10.530;2023-05-31T11:19:58;24.70;77.80
16479;DHT22;8350;52.316;10.530;2023-05-31T11:22:26;24.70;99.90
16479;DHT22;8350;52.316;10.530;2023-05-31T11:24:54;24.60;87.60
16479;DHT22;8350;52.316;10.530;2023-05-31T11:27:34;24.70;47.60
16479;DHT22;8350;52.316;10.530;2023-05-31T11:30:07;24.70;63.40
16479;DHT22;8350;52.316;10.530;2023-05-31T11:33:16;25.10;36.90
16479;DHT22;8350;52.316;10.530;2023-05-31T11:35:48;25.40;25.30
16479;DHT22;8350;52.316;10.530;2023-05-31T11:38:15;25.40;1.00
16479;DHT22;8350;52.316;10.530;2023-05-31T11:40:42;25.40;1.00
16479;DHT22;8350;52.316;10.530;2023-05-31T11:43:14;25.70;1.00
16479;DHT22;8350;52.316;10.530;2023-05-31T11:45:46;25.50;1.00
16479;DHT22;8350;52.316;10.530;2023-05-31T11:48:26;25.50;1.00
16479;DHT22;8350;52.316;10.530;2023-05-31T11:50:57;25.30;1.00
16479;DHT22;8350;52.316;10.530;2023-05-31T11:53:26;25.60;1.00
16479;DHT22;8350;52.316;10.530;2023-05-31T11:55:54;26.00;1.00
16479;DHT22;8350;52.316;10.530;2023-05-31T11:58:21;25.70;1.00
16479;DHT22;8350;52.316;10.530;2023-05-31T12:00:48;25.60;1.00
16479;DHT22;8350;52.316;10.530;2023-05-31T12:03:16;25.70;1.00
16479;DHT22;8350;52.316;10.530;2023-05-31T12:05:49;25.20;1.00
16479;DHT22;8350;52.316;10.530;2023-05-31T12:08:21;25.00;1.00
16479;DHT22;8350;52.316;10.530;2023-05-31T12:10:49;25.00;1.00
16479;DHT22;8350;52.316;10.530;2023-05-31T12:13:16;25.10;1.00
16479;DHT22;8350;52.316;10.530;2023-05-31T12:15:52;25.00;1.00
16479;DHT22;8350;52.316;10.530;2023-05-31T12:18:21;24.90;1.00
16479;DHT22;8350;52.316;10.530;2023-05-31T12:20:49;25.10;1.00
16479;DHT22;8350;52.316;10.530;2023-05-31T12:23:16;25.10;1.00
16479;DHT22;8350;52.316;10.530;2023-05-31T12:25:48;24.90;1.00
16479;DHT22;8350;52.316;10.530;2023-05-31T12:28:16;24.60;1.00
16479;DHT22;8350;52.316;10.530;2023-05-31T12:30:45;24.80;1.00
16479;DHT22;8350;52.316;10.530;2023-05-31T12:33:12;24.90;1.00
16479;DHT22;8350;52.316;10.530;2023-05-31T12:35:40;24.80;1.00
16479;DHT22;8350;52.316;10.530;2023-05-31T12:38:07;25.10;1.00
16479;DHT22;8350;52.316;10.530;2023-05-31T12:40:37;25.40;1.00
16479;DHT22;8350;52.316;10.530;2023-05-31T12:43:08;25.20;1.00
16479;DHT22;8350;52.316;10.530;2023-05-31T12:45:39;25.30;1.00
16479;DHT22;8350;52.316;10.530;2023-05-31T12:48:08;25.30;1.00
16479;DHT22;8350;52.316;10.530;2023-05-31T12:50:36;25.40;1.00
16479;DHT22;8350;52.316;10.530;2023-05-31T12:53:05;24.70;1.00
16479;DHT22;8350;52.316;10.530;2023-05-31T12:55:33;24.60;1.00
16479;DHT22;8350;52.316;10.530;2023-05-31T12:58:00;25.00;1.00
16479;DHT22;8350;52.316;10.530;2023-05-31T13:00:29;25.10;1.00
16479;DHT22;8350;52.316;10.530;2023-05-31T13:02:56;25.10;1.00
16479;DHT22;8350;52.316;10.530;2023-05-31T13:05:23;24.90;1.00
16479;DHT22;8350;52.316;10.530;2023-05-31T13:07:53;25.00;1.00
16479;DHT22;8350;52.316;10.530;2023-05-31T13:10:20;25.00;1.00
16479;DHT22;8350;52.316;10.530;2023-05-31T13:12:50;25.00;1.00
16479;DHT22;8350;52.316;10.530;2023-05-31T13:15:17;25.20;1.00
16479;DHT22;8350;52.316;10.530;2023-05-31T13:17:46;25.40;1.00
16479;DHT22;8350;52.316;10.530;2023-05-31T13:20:13;25.40;1.00
16479;DHT22;8350;52.316;10.530;2023-05-31T13:22:41;25.50;1.00
16479;DHT22;8350;52.316;10.530;2023-05-31T13:25:09;25.60;1.00
16479;DHT22;8350;52.316;10.530;2023-05-31T13:27:36;25.50;1.00
16479;DHT22;8350;52.316;10.530;2023-05-31T13:30:06;25.50;1.00
16479;DHT22;8350;52.316;10.530;2023-05-31T13:32:33;25.20;1.00
16479;DHT22;8350;52.316;10.530;2023-05-31T13:35:02;25.10;1.00
16479;DHT22;8350;52.316;10.530;2023-05-31T13:37:30;25.10;1.00
16479;DHT22;8350;52.316;10.530;2023-05-31T13:39:58;25.30;1.00
16479;DHT22;8350;52.316;10.530;2023-05-31T13:42:25;25.10;1.00
16479;DHT22;8350;52.316;10.530;2023-05-31T13:44:55;25.20;1.00
16479;DHT22;8350;52.316;10.530;2023-05-31T13:47:21;25.30;1.00
16479;DHT22;8350;52.316;10.530;2023-05-31T13:49:48;25.30;1.00
16479;DHT22;8350;52.316;10.530;2023-05-31T13:52:17;25.40;1.00
16479;DHT22;8350;52.316;10.530;2023-05-31T13:54:44;25.20;1.00
16479;DHT22;8350;52.316;10.530;2023-05-31T13:57:12;25.50;1.00
16479;DHT22;8350;52.316;10.530;2023-05-31T13:59:39;25.40;1.00
16479;DHT22;8350;52.316;10.530;2023-05-31T14:02:08;25.40;1.00
16479;DHT22;8350;52.316;10.530;2023-05-31T14:04:35;25.60;1.00
16479;DHT22;8350;52.316;10.530;2023-05-31T14:07:03;25.70;1.00
16479;DHT22;8350;52.316;10.530;2023-05-31T14:09:32;25.80;1.00
16479;DHT22;8350;52.316;10.530;2023-05-31T14:11:59;25.90;1.00
16479;DHT22;8350;52.316;10.530;2023-05-31T14:14:25;25.70;1.00
16479;DHT22;8350;52.316;10.530;2023-05-31T14:16:53;25.60;1.00
16479;DHT22;8350;52.316;10.530;2023-05-31T14:19:20;25.50;1.00
16479;DHT22;8350;52.316;10.530;2023-05-31T14:21:47;25.30;1.00
16479;DHT22;8350;52.316;10.530;2023-05-31T14:24:20;25.40;1.00
16479;DHT22;8350;52.316;10.530;2023-05-31T14:26:49;25.70;1.00
16479;DHT22;8350;52.316;10.530;2023-05-31T14:29:18;26.00;1.00
16479;DHT22;8350;52.316;10.530;2023-05-31T14:31:45;26.20;1.00
16479;DHT22;8350;52.316;10.530;2023-05-31T14:34:12;26.50;1.00
16479;DHT22;8350;52.316;10.530;2023-05-31T14:36:41;26.30;1.00
16479;DHT22;8350;52.316;10.530;2023-05-31T14:39:08;26.30;1.00
16479;DHT22;8350;52.316;10.530;2023-05-31T14:41:35;26.50;1.00
16479;DHT22;8350;52.316;10.530;2023-05-31T14:44:03;26.60;1.00
16479;DHT22;8350;52.316;10.530;2023-05-31T14:46:31;26.70;1.00
16479;DHT22;8350;52.316;10.530;2023-05-31T14:48:58;26.50;1.00
16479;DHT22;8350;52.316;10.530;2023-05-31T14:51:25;26.40;1.00
16479;DHT22;8350;52.316;10.530;2023-05-31T14:53:53;26.50;1.00
16479;DHT22;8350;52.316;10.530;2023-05-31T14:56:21;26.50;1.00
16479;DHT22;8350;52.316;10.530;2023-05-31T14:58:48;26.60;1.00
16479;DHT22;8350;52.316;10.530;2023-05-31T15:01:16;26.30;1.00
16479;DHT22;8350;52.316;10.530;2023-05-31T15:03:47;26.10;1.00
16479;DHT22;8350;52.316;10.530;2023-05-31T15:06:14;26.30;1.00
16479;DHT22;8350;52.316;10.530;2023-05-31T15:08:41;26.50;1.00
16479;DHT22;8350;52.316;10.530;2023-05-31T15:11:08;26.40;1.00
16479;DHT22;8350;52.316;10.530;2023-05-31T15:13:36;26.40;1.00
16479;DHT22;8350;52.316;10.530;2023-05-31T15:16:05;26.20;1.00
16479;DHT22;8350;52.316;10.530;2023-05-31T15:18:34;26.10;1.00
16479;DHT22;8350;52.316;10.530;2023-05-31T15:21:01;26.30;1.00
16479;DHT22;8350;52.316;10.530;2023-05-31T15:23:28;26.30;1.00
16479;DHT22;8350;52.316;10.530;2023-05-31T15:25:55;26.40;1.00
16479;DHT22;8350;52.316;10.530;2023-05-31T15:28:22;26.50;1.00
16479;DHT22;8350;52.316;10.530;2023-05-31T15:30:51;26.70;1.00
16479;DHT22;8350;52.316;10.530;2023-05-31T15:33:18;26.80;1.00
16479;DHT22;8350;52.316;10.530;2023-05-31T15:35:47;26.70;1.00
16479;DHT22;8350;52.316;10.530;2023-05-31T15:38:14;26.30;1.00
16479;DHT22;8350;52.316;10.530;2023-05-31T15:40:41;26.10;1.00
16479;DHT22;8350;52.316;10.530;2023-05-31T15:43:07;26.10;1.00
16479;DHT22;8350;52.316;10.530;2023-05-31T15:45:34;25.70;1.00
16479;DHT22;8350;52.316;10.530;2023-05-31T15:48:01;25.40;1.00
16479;DHT22;8350;52.316;10.530;2023-05-31T15:50:28;25.40;1.00